sensor_id;sensor_type;location;lat;lon;timestamp;P1;durP1;ratioP1;P2;durP2;ratioP2
65706;SDS011;52423;43.512;5.220;2023-05-16T00:00:50;4.80;;;4.40;;
65706;SDS011;52423;43.512;5.220;2023-05-16T00:03:17;6.30;;;4.82;;
65706;SDS011;52423;43.512;5.220;2023-05-16T00:05:43;7.00;;;4.22;;
65706;SDS011;52423;43.512;5.220;2023-05-16T00:08:09;6.40;;;4.30;;
65706;SDS011;52423;43.512;5.220;2023-05-16T00:10:35;8.52;;;4.63;;
65706;SDS011;52423;43.512;5.220;2023-05-16T00:13:01;4.47;;;4.07;;
65706;SDS011;52423;43.512;5.220;2023-05-16T00:15:27;5.50;;;4.20;;
65706;SDS011;52423;43.512;5.220;2023-05-16T00:17:54;7.53;;;4.72;;
65706;SDS011;52423;43.512;5.220;2023-05-16T00:20:22;4.13;;;3.83;;
65706;SDS011;52423;43.512;5.220;2023-05-16T00:22:48;6.07;;;4.15;;
65706;SDS011;52423;43.512;5.220;2023-05-16T00:25:14;4.53;;;4.18;;
65706;SDS011;52423;43.512;5.220;2023-05-16T00:27:40;7.60;;;4.18;;
65706;SDS011;52423;43.512;5.220;2023-05-16T00:30:05;6.03;;;4.45;;
65706;SDS011;52423;43.512;5.220;2023-05-16T00:32:31;4.53;;;3.97;;
65706;SDS011;52423;43.512;5.220;2023-05-16T00:34:57;7.63;;;4.20;;
65706;SDS011;52423;43.512;5.220;2023-05-16T00:37:22;5.03;;;4.20;;
65706;SDS011;52423;43.512;5.220;2023-05-16T00:39:48;4.20;;;3.90;;
65706;SDS011;52423;43.512;5.220;2023-05-16T00:42:13;8.85;;;4.30;;
65706;SDS011;52423;43.512;5.220;2023-05-16T00:44:39;5.00;;;4.53;;
65706;SDS011;52423;43.512;5.220;2023-05-16T00:47:05;4.78;;;4.22;;
65706;SDS011;52423;43.512;5.220;2023-05-16T00:49:30;7.05;;;4.40;;
65706;SDS011;52423;43.512;5.220;2023-05-16T00:51:56;7.13;;;4.88;;
65706;SDS011;52423;43.512;5.220;2023-05-16T00:54:22;4.80;;;4.40;;
65706;SDS011;52423;43.512;5.220;2023-05-16T00:56:51;4.70;;;4.30;;
65706;SDS011;52423;43.512;5.220;2023-05-16T00:59:16;6.95;;;4.10;;
65706;SDS011;52423;43.512;5.220;2023-05-16T01:01:44;6.07;;;4.50;;
65706;SDS011;52423;43.512;5.220;2023-05-16T01:04:11;5.13;;;4.60;;
65706;SDS011;52423;43.512;5.220;2023-05-16T01:06:37;7.40;;;4.53;;
65706;SDS011;52423;43.512;5.220;2023-05-16T01:09:02;4.60;;;4.20;;
65706;SDS011;52423;43.512;5.220;2023-05-16T01:11:32;4.70;;;4.30;;
65706;SDS011;52423;43.512;5.220;2023-05-16T01:16:51;5.67;;;4.30;;
65706;SDS011;52423;43.512;5.220;2023-05-16T01:22:35;5.18;;;4.40;;
65706;SDS011;52423;43.512;5.220;2023-05-16T01:25:21;6.68;;;4.53;;
65706;SDS011;52423;43.512;5.220;2023-05-16T01:27:56;4.68;;;4.28;;
65706;SDS011;52423;43.512;5.220;2023-05-16T01:30:22;4.65;;;4.13;;
65706;SDS011;52423;43.512;5.220;2023-05-16T01:32:48;4.70;;;4.30;;
65706;SDS011;52423;43.512;5.220;2023-05-16T01:35:14;5.40;;;4.15;;
65706;SDS011;52423;43.512;5.220;2023-05-16T01:40:16;4.75;;;4.35;;
65706;SDS011;52423;43.512;5.220;2023-05-16T01:42:51;4.72;;;4.30;;
65706;SDS011;52423;43.512;5.220;2023-05-16T01:45:22;7.97;;;4.63;;
65706;SDS011;52423;43.512;5.220;2023-05-16T01:48:02;4.90;;;4.50;;
65706;SDS011;52423;43.512;5.220;2023-05-16T01:50:28;4.85;;;4.30;;
65706;SDS011;52423;43.512;5.220;2023-05-16T01:52:59;5.55;;;4.38;;
65706;SDS011;52423;43.512;5.220;2023-05-16T01:55:44;5.75;;;4.80;;
65706;SDS011;52423;43.512;5.220;2023-05-16T01:58:11;4.68;;;4.28;;
65706;SDS011;52423;43.512;5.220;2023-05-16T02:00:38;7.05;;;4.63;;
65706;SDS011;52423;43.512;5.220;2023-05-16T02:03:04;4.68;;;4.20;;
65706;SDS011;52423;43.512;5.220;2023-05-16T02:05:30;5.20;;;4.45;;
65706;SDS011;52423;43.512;5.220;2023-05-16T02:07:56;4.88;;;4.40;;
65706;SDS011;52423;43.512;5.220;2023-05-16T02:10:22;5.40;;;4.40;;
65706;SDS011;52423;43.512;5.220;2023-05-16T02:12:49;10.77;;;4.38;;
65706;SDS011;52423;43.512;5.220;2023-05-16T02:15:15;9.60;;;4.90;;
65706;SDS011;52423;43.512;5.220;2023-05-16T02:17:40;5.15;;;4.60;;
65706;SDS011;52423;43.512;5.220;2023-05-16T02:20:06;5.07;;;4.57;;
65706;SDS011;52423;43.512;5.220;2023-05-16T02:22:34;4.65;;;4.32;;
65706;SDS011;52423;43.512;5.220;2023-05-16T02:25:01;4.68;;;4.28;;
65706;SDS011;52423;43.512;5.220;2023-05-16T02:27:27;5.05;;;4.20;;
65706;SDS011;52423;43.512;5.220;2023-05-16T02:29:53;4.93;;;4.53;;
65706;SDS011;52423;43.512;5.220;2023-05-16T02:32:18;5.40;;;4.30;;
65706;SDS011;52423;43.512;5.220;2023-05-16T02:34:43;4.05;;;3.80;;
65706;SDS011;52423;43.512;5.220;2023-05-16T02:37:09;4.88;;;4.47;;
65706;SDS011;52423;43.512;5.220;2023-05-16T02:39:34;4.85;;;4.38;;
65706;SDS011;52423;43.512;5.220;2023-05-16T02:42:00;4.57;;;4.18;;
65706;SDS011;52423;43.512;5.220;2023-05-16T02:44:25;5.20;;;4.40;;
65706;SDS011;52423;43.512;5.220;2023-05-16T02:46:51;5.03;;;4.03;;
65706;SDS011;52423;43.512;5.220;2023-05-16T02:49:16;4.72;;;4.18;;
65706;SDS011;52423;43.512;5.220;2023-05-16T02:51:41;5.72;;;5.05;;
65706;SDS011;52423;43.512;5.220;2023-05-16T02:54:07;13.15;;;3.92;;
65706;SDS011;52423;43.512;5.220;2023-05-16T02:56:33;4.80;;;4.18;;
65706;SDS011;52423;43.512;5.220;2023-05-16T02:58:59;6.07;;;4.30;;
65706;SDS011;52423;43.512;5.220;2023-05-16T03:01:25;4.07;;;3.78;;
65706;SDS011;52423;43.512;5.220;2023-05-16T03:03:50;7.93;;;4.32;;
65706;SDS011;52423;43.512;5.220;2023-05-16T03:06:16;4.55;;;4.13;;
65706;SDS011;52423;43.512;5.220;2023-05-16T03:08:41;5.13;;;4.38;;
65706;SDS011;52423;43.512;5.220;2023-05-16T03:11:06;5.20;;;3.70;;
65706;SDS011;52423;43.512;5.220;2023-05-16T03:13:32;4.38;;;3.97;;
65706;SDS011;52423;43.512;5.220;2023-05-16T03:15:57;6.40;;;4.07;;
65706;SDS011;52423;43.512;5.220;2023-05-16T03:18:23;4.78;;;4.30;;
65706;SDS011;52423;43.512;5.220;2023-05-16T03:20:49;4.20;;;3.80;;
65706;SDS011;52423;43.512;5.220;2023-05-16T03:23:16;4.78;;;4.38;;
65706;SDS011;52423;43.512;5.220;2023-05-16T03:25:43;5.20;;;4.20;;
65706;SDS011;52423;43.512;5.220;2023-05-16T03:28:10;4.40;;;4.10;;
65706;SDS011;52423;43.512;5.220;2023-05-16T03:30:36;5.18;;;4.10;;
65706;SDS011;52423;43.512;5.220;2023-05-16T03:33:01;4.45;;;4.00;;
65706;SDS011;52423;43.512;5.220;2023-05-16T03:35:28;5.97;;;4.25;;
65706;SDS011;52423;43.512;5.220;2023-05-16T03:37:55;4.10;;;3.80;;
65706;SDS011;52423;43.512;5.220;2023-05-16T03:40:20;4.78;;;3.97;;
65706;SDS011;52423;43.512;5.220;2023-05-16T03:42:46;4.38;;;4.07;;
65706;SDS011;52423;43.512;5.220;2023-05-16T03:45:11;6.90;;;4.40;;
65706;SDS011;52423;43.512;5.220;2023-05-16T03:47:37;6.03;;;3.78;;
65706;SDS011;52423;43.512;5.220;2023-05-16T03:50:03;5.20;;;3.90;;
65706;SDS011;52423;43.512;5.220;2023-05-16T03:52:29;5.22;;;4.10;;
65706;SDS011;52423;43.512;5.220;2023-05-16T03:54:54;4.30;;;4.00;;
65706;SDS011;52423;43.512;5.220;2023-05-16T03:57:20;5.38;;;4.00;;
65706;SDS011;52423;43.512;5.220;2023-05-16T03:59:45;5.25;;;3.72;;
65706;SDS011;52423;43.512;5.220;2023-05-16T04:02:10;6.57;;;4.32;;
65706;SDS011;52423;43.512;5.220;2023-05-16T04:04:36;4.68;;;4.07;;
65706;SDS011;52423;43.512;5.220;2023-05-16T04:07:01;4.20;;;3.80;;
65706;SDS011;52423;43.512;5.220;2023-05-16T04:09:27;6.38;;;4.55;;
65706;SDS011;52423;43.512;5.220;2023-05-16T04:11:52;4.78;;;4.38;;
65706;SDS011;52423;43.512;5.220;2023-05-16T04:14:20;4.75;;;4.28;;
65706;SDS011;52423;43.512;5.220;2023-05-16T04:16:45;4.68;;;4.28;;
65706;SDS011;52423;43.512;5.220;2023-05-16T04:19:10;5.30;;;4.80;;
65706;SDS011;52423;43.512;5.220;2023-05-16T04:21:36;4.25;;;3.88;;
65706;SDS011;52423;43.512;5.220;2023-05-16T04:24:01;4.75;;;4.35;;
65706;SDS011;52423;43.512;5.220;2023-05-16T04:26:27;6.72;;;4.57;;
65706;SDS011;52423;43.512;5.220;2023-05-16T04:28:52;4.57;;;4.18;;
65706;SDS011;52423;43.512;5.220;2023-05-16T04:31:17;5.03;;;4.55;;
65706;SDS011;52423;43.512;5.220;2023-05-16T04:33:43;4.68;;;4.28;;
65706;SDS011;52423;43.512;5.220;2023-05-16T04:36:08;7.53;;;4.60;;
65706;SDS011;52423;43.512;5.220;2023-05-16T04:38:33;5.05;;;4.65;;
65706;SDS011;52423;43.512;5.220;2023-05-16T04:40:59;4.90;;;4.30;;
65706;SDS011;52423;43.512;5.220;2023-05-16T04:43:25;4.85;;;4.40;;
65706;SDS011;52423;43.512;5.220;2023-05-16T04:45:51;6.53;;;4.78;;
65706;SDS011;52423;43.512;5.220;2023-05-16T04:48:18;8.25;;;4.97;;
65706;SDS011;52423;43.512;5.220;2023-05-16T04:50:43;5.03;;;4.60;;
65706;SDS011;52423;43.512;5.220;2023-05-16T04:53:08;6.32;;;4.93;;
65706;SDS011;52423;43.512;5.220;2023-05-16T04:55:34;6.65;;;4.68;;
65706;SDS011;52423;43.512;5.220;2023-05-16T04:57:59;5.07;;;4.68;;
65706;SDS011;52423;43.512;5.220;2023-05-16T05:00:25;6.93;;;4.60;;
65706;SDS011;52423;43.512;5.220;2023-05-16T05:02:50;5.35;;;4.75;;
65706;SDS011;52423;43.512;5.220;2023-05-16T05:05:16;5.15;;;4.63;;
65706;SDS011;52423;43.512;5.220;2023-05-16T05:07:41;5.13;;;4.70;;
65706;SDS011;52423;43.512;5.220;2023-05-16T05:10:07;4.93;;;4.28;;
65706;SDS011;52423;43.512;5.220;2023-05-16T05:12:33;6.63;;;5.55;;
65706;SDS011;52423;43.512;5.220;2023-05-16T05:14:59;5.35;;;4.85;;
65706;SDS011;52423;43.512;5.220;2023-05-16T05:17:25;7.22;;;6.53;;
65706;SDS011;52423;43.512;5.220;2023-05-16T05:19:50;4.65;;;4.25;;
65706;SDS011;52423;43.512;5.220;2023-05-16T05:22:16;5.32;;;4.82;;
65706;SDS011;52423;43.512;5.220;2023-05-16T05:24:41;5.25;;;4.75;;
65706;SDS011;52423;43.512;5.220;2023-05-16T05:27:06;5.18;;;4.75;;
65706;SDS011;52423;43.512;5.220;2023-05-16T05:29:32;11.25;;;5.22;;
65706;SDS011;52423;43.512;5.220;2023-05-16T05:31:57;9.60;;;4.90;;
65706;SDS011;52423;43.512;5.220;2023-05-16T05:34:23;8.60;;;4.80;;
65706;SDS011;52423;43.512;5.220;2023-05-16T05:36:48;5.07;;;4.63;;
65706;SDS011;52423;43.512;5.220;2023-05-16T05:39:14;5.57;;;5.05;;
65706;SDS011;52423;43.512;5.220;2023-05-16T05:41:39;5.28;;;4.78;;
65706;SDS011;52423;43.512;5.220;2023-05-16T05:44:05;6.68;;;5.18;;
65706;SDS011;52423;43.512;5.220;2023-05-16T05:46:30;6.20;;;5.20;;
65706;SDS011;52423;43.512;5.220;2023-05-16T05:48:57;5.60;;;4.60;;
65706;SDS011;52423;43.512;5.220;2023-05-16T05:51:23;13.20;;;8.55;;
65706;SDS011;52423;43.512;5.220;2023-05-16T05:53:48;5.40;;;4.90;;
65706;SDS011;52423;43.512;5.220;2023-05-16T05:56:14;5.85;;;4.80;;
65706;SDS011;52423;43.512;5.220;2023-05-16T05:58:39;7.88;;;5.40;;
65706;SDS011;52423;43.512;5.220;2023-05-16T06:01:09;4.60;;;4.20;;
65706;SDS011;52423;43.512;5.220;2023-05-16T06:03:35;5.35;;;4.78;;
65706;SDS011;52423;43.512;5.220;2023-05-16T06:06:00;5.53;;;5.03;;
65706;SDS011;52423;43.512;5.220;2023-05-16T06:08:26;11.45;;;4.57;;
65706;SDS011;52423;43.512;5.220;2023-05-16T06:10:51;6.40;;;4.68;;
65706;SDS011;52423;43.512;5.220;2023-05-16T06:13:17;8.77;;;4.72;;
65706;SDS011;52423;43.512;5.220;2023-05-16T06:15:42;6.28;;;4.90;;
65706;SDS011;52423;43.512;5.220;2023-05-16T06:18:07;7.35;;;4.68;;
65706;SDS011;52423;43.512;5.220;2023-05-16T06:20:33;5.05;;;4.55;;
65706;SDS011;52423;43.512;5.220;2023-05-16T06:22:58;8.55;;;5.00;;
65706;SDS011;52423;43.512;5.220;2023-05-16T06:25:25;6.45;;;5.13;;
65706;SDS011;52423;43.512;5.220;2023-05-16T06:27:50;5.28;;;4.78;;
65706;SDS011;52423;43.512;5.220;2023-05-16T06:30:16;6.40;;;4.70;;
65706;SDS011;52423;43.512;5.220;2023-05-16T06:32:41;5.35;;;4.60;;
65706;SDS011;52423;43.512;5.220;2023-05-16T06:35:07;6.18;;;4.95;;
65706;SDS011;52423;43.512;5.220;2023-05-16T06:37:33;7.68;;;5.10;;
65706;SDS011;52423;43.512;5.220;2023-05-16T06:39:58;5.68;;;5.18;;
65706;SDS011;52423;43.512;5.220;2023-05-16T06:42:24;9.18;;;5.25;;
65706;SDS011;52423;43.512;5.220;2023-05-16T06:44:49;5.05;;;4.55;;
65706;SDS011;52423;43.512;5.220;2023-05-16T06:47:15;5.60;;;4.63;;
65706;SDS011;52423;43.512;5.220;2023-05-16T06:49:40;9.63;;;4.63;;
65706;SDS011;52423;43.512;5.220;2023-05-16T06:52:06;8.68;;;5.07;;
65706;SDS011;52423;43.512;5.220;2023-05-16T06:54:31;5.90;;;5.15;;
65706;SDS011;52423;43.512;5.220;2023-05-16T06:56:56;5.82;;;4.78;;
65706;SDS011;52423;43.512;5.220;2023-05-16T06:59:22;6.05;;;4.50;;
65706;SDS011;52423;43.512;5.220;2023-05-16T07:01:47;7.68;;;4.93;;
65706;SDS011;52423;43.512;5.220;2023-05-16T07:04:13;5.32;;;4.88;;
65706;SDS011;52423;43.512;5.220;2023-05-16T07:06:39;10.65;;;4.63;;
65706;SDS011;52423;43.512;5.220;2023-05-16T07:09:04;6.32;;;5.00;;
65706;SDS011;52423;43.512;5.220;2023-05-16T07:11:30;6.00;;;5.18;;
65706;SDS011;52423;43.512;5.220;2023-05-16T07:13:55;7.32;;;4.53;;
65706;SDS011;52423;43.512;5.220;2023-05-16T07:16:20;7.15;;;5.22;;
65706;SDS011;52423;43.512;5.220;2023-05-16T07:18:46;10.38;;;5.38;;
65706;SDS011;52423;43.512;5.220;2023-05-16T07:21:11;7.63;;;4.20;;
65706;SDS011;52423;43.512;5.220;2023-05-16T07:23:36;8.07;;;5.13;;
65706;SDS011;52423;43.512;5.220;2023-05-16T07:26:02;7.45;;;5.57;;
65706;SDS011;52423;43.512;5.220;2023-05-16T07:28:27;5.30;;;4.70;;
65706;SDS011;52423;43.512;5.220;2023-05-16T07:30:53;10.10;;;5.28;;
65706;SDS011;52423;43.512;5.220;2023-05-16T07:33:19;11.23;;;4.85;;
65706;SDS011;52423;43.512;5.220;2023-05-16T07:35:44;4.75;;;4.35;;
65706;SDS011;52423;43.512;5.220;2023-05-16T07:38:10;6.55;;;5.43;;
65706;SDS011;52423;43.512;5.220;2023-05-16T07:40:35;5.57;;;4.40;;
65706;SDS011;52423;43.512;5.220;2023-05-16T07:43:01;6.20;;;5.18;;
65706;SDS011;52423;43.512;5.220;2023-05-16T07:45:26;6.03;;;4.63;;
65706;SDS011;52423;43.512;5.220;2023-05-16T07:47:52;7.32;;;4.70;;
65706;SDS011;52423;43.512;5.220;2023-05-16T07:50:17;5.82;;;4.60;;
65706;SDS011;52423;43.512;5.220;2023-05-16T07:52:43;4.63;;;4.15;;
65706;SDS011;52423;43.512;5.220;2023-05-16T07:55:08;8.55;;;4.70;;
65706;SDS011;52423;43.512;5.220;2023-05-16T07:57:34;6.03;;;5.35;;
65706;SDS011;52423;43.512;5.220;2023-05-16T07:59:59;8.20;;;4.80;;
65706;SDS011;52423;43.512;5.220;2023-05-16T08:02:25;7.22;;;4.57;;
65706;SDS011;52423;43.512;5.220;2023-05-16T08:04:54;3.80;;;3.40;;
65706;SDS011;52423;43.512;5.220;2023-05-16T08:07:21;6.90;;;4.65;;
65706;SDS011;52423;43.512;5.220;2023-05-16T08:09:47;5.78;;;4.05;;
65706;SDS011;52423;43.512;5.220;2023-05-16T08:12:13;10.00;;;4.30;;
65706;SDS011;52423;43.512;5.220;2023-05-16T08:14:38;9.60;;;4.30;;
65706;SDS011;52423;43.512;5.220;2023-05-16T08:17:04;11.82;;;4.90;;
65706;SDS011;52423;43.512;5.220;2023-05-16T08:19:29;6.85;;;4.20;;
65706;SDS011;52423;43.512;5.220;2023-05-16T08:21:56;12.07;;;4.47;;
65706;SDS011;52423;43.512;5.220;2023-05-16T08:24:22;12.57;;;4.43;;
65706;SDS011;52423;43.512;5.220;2023-05-16T08:26:47;5.25;;;4.45;;
65706;SDS011;52423;43.512;5.220;2023-05-16T08:29:13;7.40;;;4.53;;
65706;SDS011;52423;43.512;5.220;2023-05-16T08:31:38;6.53;;;4.05;;
65706;SDS011;52423;43.512;5.220;2023-05-16T08:34:03;5.07;;;4.00;;
65706;SDS011;52423;43.512;5.220;2023-05-16T08:36:30;10.50;;;4.30;;
65706;SDS011;52423;43.512;5.220;2023-05-16T08:38:57;5.00;;;4.50;;
65706;SDS011;52423;43.512;5.220;2023-05-16T08:41:23;8.05;;;4.68;;
65706;SDS011;52423;43.512;5.220;2023-05-16T08:43:48;5.85;;;4.13;;
65706;SDS011;52423;43.512;5.220;2023-05-16T08:46:13;16.88;;;4.47;;
65706;SDS011;52423;43.512;5.220;2023-05-16T08:48:41;5.40;;;4.03;;
65706;SDS011;52423;43.512;5.220;2023-05-16T08:51:10;4.28;;;3.97;;
65706;SDS011;52423;43.512;5.220;2023-05-16T08:53:38;6.13;;;4.40;;
65706;SDS011;52423;43.512;5.220;2023-05-16T08:56:07;10.43;;;4.90;;
65706;SDS011;52423;43.512;5.220;2023-05-16T08:58:34;7.90;;;4.40;;
65706;SDS011;52423;43.512;5.220;2023-05-16T09:01:00;7.35;;;4.20;;
65706;SDS011;52423;43.512;5.220;2023-05-16T09:03:30;6.80;;;4.35;;
65706;SDS011;52423;43.512;5.220;2023-05-16T09:05:56;8.90;;;4.00;;
65706;SDS011;52423;43.512;5.220;2023-05-16T09:08:21;10.18;;;4.25;;
65706;SDS011;52423;43.512;5.220;2023-05-16T09:10:47;10.93;;;4.97;;
65706;SDS011;52423;43.512;5.220;2023-05-16T09:13:12;6.78;;;4.28;;
65706;SDS011;52423;43.512;5.220;2023-05-16T09:15:38;6.93;;;3.60;;
65706;SDS011;52423;43.512;5.220;2023-05-16T09:18:03;5.30;;;3.85;;
65706;SDS011;52423;43.512;5.220;2023-05-16T09:20:29;11.13;;;4.38;;
65706;SDS011;52423;43.512;5.220;2023-05-16T09:22:56;7.65;;;3.63;;
65706;SDS011;52423;43.512;5.220;2023-05-16T09:25:23;4.57;;;3.85;;
65706;SDS011;52423;43.512;5.220;2023-05-16T09:27:53;7.18;;;3.90;;
65706;SDS011;52423;43.512;5.220;2023-05-16T09:30:20;10.55;;;3.60;;
65706;SDS011;52423;43.512;5.220;2023-05-16T09:32:49;9.20;;;3.60;;
65706;SDS011;52423;43.512;5.220;2023-05-16T09:35:17;5.72;;;3.25;;
65706;SDS011;52423;43.512;5.220;2023-05-16T09:37:44;5.18;;;3.20;;
65706;SDS011;52423;43.512;5.220;2023-05-16T09:40:13;13.98;;;3.97;;
65706;SDS011;52423;43.512;5.220;2023-05-16T09:42:39;6.43;;;3.75;;
65706;SDS011;52423;43.512;5.220;2023-05-16T09:45:04;5.93;;;4.03;;
65706;SDS011;52423;43.512;5.220;2023-05-16T09:47:30;6.65;;;3.22;;
65706;SDS011;52423;43.512;5.220;2023-05-16T09:49:55;5.47;;;3.75;;
65706;SDS011;52423;43.512;5.220;2023-05-16T09:52:21;7.68;;;4.05;;
65706;SDS011;52423;43.512;5.220;2023-05-16T09:54:47;6.63;;;3.53;;
65706;SDS011;52423;43.512;5.220;2023-05-16T09:57:18;7.93;;;3.47;;
65706;SDS011;52423;43.512;5.220;2023-05-16T09:59:44;7.93;;;3.50;;
65706;SDS011;52423;43.512;5.220;2023-05-16T10:02:10;4.35;;;3.55;;
65706;SDS011;52423;43.512;5.220;2023-05-16T10:04:37;10.80;;;3.67;;
65706;SDS011;52423;43.512;5.220;2023-05-16T10:07:03;11.63;;;4.18;;
65706;SDS011;52423;43.512;5.220;2023-05-16T10:09:31;5.47;;;3.70;;
65706;SDS011;52423;43.512;5.220;2023-05-16T10:11:59;9.38;;;3.33;;
65706;SDS011;52423;43.512;5.220;2023-05-16T10:14:29;18.65;;;3.80;;
65706;SDS011;52423;43.512;5.220;2023-05-16T10:16:59;6.22;;;3.15;;
65706;SDS011;52423;43.512;5.220;2023-05-16T10:19:27;9.68;;;3.42;;
65706;SDS011;52423;43.512;5.220;2023-05-16T10:21:56;6.80;;;3.80;;
65706;SDS011;52423;43.512;5.220;2023-05-16T10:24:25;4.47;;;3.20;;
65706;SDS011;52423;43.512;5.220;2023-05-16T10:26:55;10.63;;;3.10;;
65706;SDS011;52423;43.512;5.220;2023-05-16T10:29:21;5.50;;;3.42;;
65706;SDS011;52423;43.512;5.220;2023-05-16T10:31:47;9.98;;;3.53;;
65706;SDS011;52423;43.512;5.220;2023-05-16T10:34:14;18.50;;;3.50;;
65706;SDS011;52423;43.512;5.220;2023-05-16T10:36:40;6.28;;;3.50;;
65706;SDS011;52423;43.512;5.220;2023-05-16T10:39:05;7.13;;;2.95;;
65706;SDS011;52423;43.512;5.220;2023-05-16T10:41:31;7.07;;;3.80;;
65706;SDS011;52423;43.512;5.220;2023-05-16T10:43:58;7.05;;;3.65;;
65706;SDS011;52423;43.512;5.220;2023-05-16T10:46:25;7.65;;;3.55;;
65706;SDS011;52423;43.512;5.220;2023-05-16T10:48:52;6.28;;;3.33;;
65706;SDS011;52423;43.512;5.220;2023-05-16T10:53:46;9.43;;;3.50;;
65706;SDS011;52423;43.512;5.220;2023-05-16T10:56:15;10.52;;;3.83;;
65706;SDS011;52423;43.512;5.220;2023-05-16T10:58:47;6.95;;;3.17;;
65706;SDS011;52423;43.512;5.220;2023-05-16T11:01:29;4.35;;;3.03;;
65706;SDS011;52423;43.512;5.220;2023-05-16T11:04:11;6.60;;;3.00;;
65706;SDS011;52423;43.512;5.220;2023-05-16T11:14:05;9.70;;;3.28;;
65706;SDS011;52423;43.512;5.220;2023-05-16T11:16:30;7.18;;;3.03;;
65706;SDS011;52423;43.512;5.220;2023-05-16T11:19:04;6.93;;;2.85;;
65706;SDS011;52423;43.512;5.220;2023-05-16T11:24:37;5.32;;;2.97;;
65706;SDS011;52423;43.512;5.220;2023-05-16T11:27:04;4.35;;;2.63;;
65706;SDS011;52423;43.512;5.220;2023-05-16T11:29:31;18.75;;;3.20;;
65706;SDS011;52423;43.512;5.220;2023-05-16T11:31:58;11.13;;;2.90;;
65706;SDS011;52423;43.512;5.220;2023-05-16T11:34:24;13.57;;;2.83;;
65706;SDS011;52423;43.512;5.220;2023-05-16T11:36:50;9.10;;;3.00;;
65706;SDS011;52423;43.512;5.220;2023-05-16T11:39:16;7.35;;;2.95;;
65706;SDS011;52423;43.512;5.220;2023-05-16T11:41:43;7.60;;;2.78;;
65706;SDS011;52423;43.512;5.220;2023-05-16T11:44:10;6.65;;;2.70;;
65706;SDS011;52423;43.512;5.220;2023-05-16T11:46:37;7.43;;;3.05;;
65706;SDS011;52423;43.512;5.220;2023-05-16T11:49:04;8.95;;;2.85;;
65706;SDS011;52423;43.512;5.220;2023-05-16T11:51:31;2.85;;;2.17;;
65706;SDS011;52423;43.512;5.220;2023-05-16T11:53:56;9.75;;;2.58;;
65706;SDS011;52423;43.512;5.220;2023-05-16T11:56:22;5.68;;;2.30;;
65706;SDS011;52423;43.512;5.220;2023-05-16T11:58:48;8.00;;;2.50;;
65706;SDS011;52423;43.512;5.220;2023-05-16T12:01:14;6.80;;;3.28;;
65706;SDS011;52423;43.512;5.220;2023-05-16T12:03:40;9.75;;;2.50;;
65706;SDS011;52423;43.512;5.220;2023-05-16T12:06:05;5.78;;;3.10;;
65706;SDS011;52423;43.512;5.220;2023-05-16T12:08:31;5.18;;;2.55;;
65706;SDS011;52423;43.512;5.220;2023-05-16T12:10:56;15.02;;;3.38;;
65706;SDS011;52423;43.512;5.220;2023-05-16T12:13:22;8.02;;;3.05;;
65706;SDS011;52423;43.512;5.220;2023-05-16T12:15:49;10.02;;;3.03;;
65706;SDS011;52423;43.512;5.220;2023-05-16T12:18:16;4.88;;;2.55;;
65706;SDS011;52423;43.512;5.220;2023-05-16T12:20:42;11.23;;;2.80;;
65706;SDS011;52423;43.512;5.220;2023-05-16T12:23:09;5.15;;;2.83;;
65706;SDS011;52423;43.512;5.220;2023-05-16T12:25:39;18.77;;;4.22;;
65706;SDS011;52423;43.512;5.220;2023-05-16T12:28:10;12.13;;;3.05;;
65706;SDS011;52423;43.512;5.220;2023-05-16T12:30:39;13.80;;;4.30;;
65706;SDS011;52423;43.512;5.220;2023-05-16T12:33:09;11.98;;;3.33;;
65706;SDS011;52423;43.512;5.220;2023-05-16T12:35:37;14.95;;;2.90;;
65706;SDS011;52423;43.512;5.220;2023-05-16T12:38:05;15.95;;;3.92;;
65706;SDS011;52423;43.512;5.220;2023-05-16T12:40:32;14.13;;;3.33;;
65706;SDS011;52423;43.512;5.220;2023-05-16T12:42:58;10.43;;;2.92;;
65706;SDS011;52423;43.512;5.220;2023-05-16T12:45:28;19.00;;;3.22;;
65706;SDS011;52423;43.512;5.220;2023-05-16T12:47:53;5.00;;;2.63;;
65706;SDS011;52423;43.512;5.220;2023-05-16T12:50:19;9.90;;;3.38;;
65706;SDS011;52423;43.512;5.220;2023-05-16T12:52:54;22.25;;;3.70;;
65706;SDS011;52423;43.512;5.220;2023-05-16T12:55:24;5.82;;;3.10;;
65706;SDS011;52423;43.512;5.220;2023-05-16T12:57:50;5.88;;;3.25;;
65706;SDS011;52423;43.512;5.220;2023-05-16T13:00:18;2.50;;;2.30;;
65706;SDS011;52423;43.512;5.220;2023-05-16T13:02:45;5.20;;;3.05;;
65706;SDS011;52423;43.512;5.220;2023-05-16T13:05:11;12.60;;;3.55;;
65706;SDS011;52423;43.512;5.220;2023-05-16T13:07:37;13.52;;;3.08;;
65706;SDS011;52423;43.512;5.220;2023-05-16T13:10:05;10.45;;;3.38;;
65706;SDS011;52423;43.512;5.220;2023-05-16T13:12:31;5.40;;;3.08;;
65706;SDS011;52423;43.512;5.220;2023-05-16T13:14:57;9.95;;;3.58;;
65706;SDS011;52423;43.512;5.220;2023-05-16T13:17:22;7.88;;;3.28;;
65706;SDS011;52423;43.512;5.220;2023-05-16T13:19:48;14.88;;;3.40;;
65706;SDS011;52423;43.512;5.220;2023-05-16T13:22:14;5.97;;;2.97;;
65706;SDS011;52423;43.512;5.220;2023-05-16T13:24:39;8.02;;;3.25;;
65706;SDS011;52423;43.512;5.220;2023-05-16T13:27:04;10.30;;;2.92;;
65706;SDS011;52423;43.512;5.220;2023-05-16T13:29:30;14.65;;;3.25;;
65706;SDS011;52423;43.512;5.220;2023-05-16T13:31:56;7.22;;;3.13;;
65706;SDS011;52423;43.512;5.220;2023-05-16T13:34:21;9.65;;;3.53;;
65706;SDS011;52423;43.512;5.220;2023-05-16T13:36:47;5.95;;;3.20;;
65706;SDS011;52423;43.512;5.220;2023-05-16T13:39:13;6.60;;;3.15;;
65706;SDS011;52423;43.512;5.220;2023-05-16T13:41:38;14.35;;;3.05;;
65706;SDS011;52423;43.512;5.220;2023-05-16T13:44:05;7.72;;;3.20;;
65706;SDS011;52423;43.512;5.220;2023-05-16T13:46:30;10.68;;;2.88;;
65706;SDS011;52423;43.512;5.220;2023-05-16T13:48:56;8.05;;;3.13;;
65706;SDS011;52423;43.512;5.220;2023-05-16T13:51:21;12.68;;;3.15;;
65706;SDS011;52423;43.512;5.220;2023-05-16T13:53:47;13.52;;;3.33;;
65706;SDS011;52423;43.512;5.220;2023-05-16T13:56:12;11.27;;;3.05;;
65706;SDS011;52423;43.512;5.220;2023-05-16T13:58:38;10.45;;;2.88;;
65706;SDS011;52423;43.512;5.220;2023-05-16T14:01:03;4.90;;;3.53;;
65706;SDS011;52423;43.512;5.220;2023-05-16T14:03:28;11.20;;;3.38;;
65706;SDS011;52423;43.512;5.220;2023-05-16T14:05:54;14.85;;;4.20;;
65706;SDS011;52423;43.512;5.220;2023-05-16T14:08:19;7.03;;;2.83;;
65706;SDS011;52423;43.512;5.220;2023-05-16T14:10:45;7.85;;;2.47;;
65706;SDS011;52423;43.512;5.220;2023-05-16T14:13:10;7.05;;;3.22;;
65706;SDS011;52423;43.512;5.220;2023-05-16T14:15:36;11.30;;;2.88;;
65706;SDS011;52423;43.512;5.220;2023-05-16T14:18:01;4.65;;;3.15;;
65706;SDS011;52423;43.512;5.220;2023-05-16T14:20:28;7.95;;;3.20;;
65706;SDS011;52423;43.512;5.220;2023-05-16T14:22:53;11.35;;;3.38;;
65706;SDS011;52423;43.512;5.220;2023-05-16T14:25:19;4.93;;;3.20;;
65706;SDS011;52423;43.512;5.220;2023-05-16T14:27:44;13.38;;;3.17;;
65706;SDS011;52423;43.512;5.220;2023-05-16T14:30:09;12.32;;;2.67;;
65706;SDS011;52423;43.512;5.220;2023-05-16T14:32:35;8.85;;;3.10;;
65706;SDS011;52423;43.512;5.220;2023-05-16T14:35:01;4.47;;;2.45;;
65706;SDS011;52423;43.512;5.220;2023-05-16T14:37:29;7.72;;;2.70;;
65706;SDS011;52423;43.512;5.220;2023-05-16T14:39:54;9.90;;;2.65;;
65706;SDS011;52423;43.512;5.220;2023-05-16T14:42:21;6.68;;;2.47;;
65706;SDS011;52423;43.512;5.220;2023-05-16T14:44:46;13.40;;;3.17;;
65706;SDS011;52423;43.512;5.220;2023-05-16T14:47:11;9.93;;;2.72;;
65706;SDS011;52423;43.512;5.220;2023-05-16T14:49:37;4.47;;;2.78;;
65706;SDS011;52423;43.512;5.220;2023-05-16T14:52:04;11.57;;;2.60;;
65706;SDS011;52423;43.512;5.220;2023-05-16T14:54:30;6.40;;;2.60;;
65706;SDS011;52423;43.512;5.220;2023-05-16T14:56:55;12.57;;;2.47;;
65706;SDS011;52423;43.512;5.220;2023-05-16T14:59:21;4.13;;;3.08;;
65706;SDS011;52423;43.512;5.220;2023-05-16T15:01:46;6.28;;;2.58;;